UMBB

Brest Airport

Airport
ICAO code
UMBB
IATA Code
BQT
Summary
ICAO Region
EUR
ICAO Territory
Location

Shebrin, Brest Region

Serving
Brest
Elevation
468 ft
Coordinates
52° 6' 30" N , 23° 53' 53" E
KCC
Dfb
Metar
Observation
UMBB 110600Z 02001MPS 6000 NSC 16/13 Q1024 NOSIG
Station
Brest
Date/Time
2022-08-11 06:00:00
Wind direction
20°
Lowest cloud amount
nil significant cloud
Temperature
16°C
Dew point
13°C
Humidity
82%
QNH
1024 hPa
Weather condition
n/a

Brest Airport is an airport serving Brest, a city in Belarus.

Climatology

Humid continental climate (Köppen climate classification Dfb)

Runways

Designator Length Width Surface Rops
11/29 2620 42 ASP No/No

Airport map

Aerial View

SKYbrary Partners:

Safety knowledge contributed by: